createdAt,value
2022-10-11T00:05:29.364Z,91.09
2022-10-11T00:11:01.229Z,91.05
2022-10-11T00:16:32.985Z,90.98
2022-10-11T00:27:36.454Z,90.21
2022-10-11T00:33:08.624Z,88.63
2022-10-11T00:38:39.951Z,89.11
2022-10-11T00:44:11.376Z,89.94
2022-10-11T00:49:42.742Z,91.24
2022-10-11T00:55:14.329Z,89.51
2022-10-11T01:00:45.940Z,90.37
2022-10-11T01:06:17.743Z,90.12
2022-10-11T01:11:49.454Z,89.95
2022-10-11T01:22:55.660Z,90.03
2022-10-11T01:28:27.476Z,89.84
2022-10-11T01:39:30.981Z,89.58
2022-10-11T01:45:03.054Z,89.95
2022-10-11T02:01:40.855Z,89.84
2022-10-11T02:07:12.849Z,89.94
2022-10-11T02:12:44.506Z,89.54
2022-10-11T02:18:16.435Z,90.05
2022-10-11T02:29:19.817Z,89.94
2022-10-11T02:34:51.623Z,89.80
2022-10-11T02:40:23.528Z,90.05
2022-10-11T02:51:27.273Z,89.88
2022-10-11T02:56:58.721Z,90.11
2022-10-11T03:02:30.712Z,89.87
2022-10-11T03:08:05.021Z,89.12
2022-10-11T03:13:37.062Z,89.24
2022-10-11T03:19:08.668Z,89.47
2022-10-11T03:24:40.597Z,90.13
2022-10-11T03:30:16.118Z,90.23
2022-10-11T03:35:44.183Z,90.34
2022-10-11T03:41:15.998Z,90.04
2022-10-11T03:46:47.640Z,90.16
2022-10-11T03:52:19.531Z,89.62
2022-10-11T03:57:51.339Z,89.88
2022-10-11T04:03:23.219Z,89.88
2022-10-11T04:08:55.144Z,90.07
2022-10-11T04:19:59.073Z,90.01
2022-10-11T04:25:30.831Z,90.58
2022-10-11T04:31:02.376Z,90.52
2022-10-11T04:42:06.756Z,89.58
2022-10-11T05:04:14.491Z,89.40
2022-10-11T05:09:46.756Z,89.58
2022-10-11T05:15:18.852Z,89.82
2022-10-11T05:20:50.515Z,89.75
2022-10-11T05:26:22.342Z,89.76
2022-10-11T05:31:54.018Z,89.89
2022-10-11T05:37:25.846Z,89.50
2022-10-11T05:42:57.683Z,89.48
2022-10-11T05:48:29.548Z,89.85
2022-10-11T05:54:01.379Z,90.12
2022-10-11T05:59:33.805Z,90.13
2022-10-11T06:10:39.591Z,90.06
2022-10-11T06:16:11.242Z,90.02
2022-10-11T06:27:14.506Z,88.35
2022-10-11T06:38:20.098Z,88.46
2022-10-11T06:43:52.466Z,88.79
2022-10-11T06:49:24.500Z,88.96
2022-10-11T06:54:56.481Z,88.83
2022-10-11T07:00:28.326Z,88.50
2022-10-11T07:06:02.751Z,88.23
2022-10-11T07:17:05.667Z,87.76
2022-10-11T07:22:37.460Z,87.24
2022-10-11T07:28:09.252Z,86.29
2022-10-11T07:33:41.024Z,86.36
2022-10-11T07:39:14.786Z,85.97
2022-10-11T07:44:46.675Z,85.38
2022-10-11T07:50:18.916Z,85.43
2022-10-11T07:55:50.739Z,85.25
2022-10-11T08:01:22.352Z,84.72
2022-10-11T08:17:57.761Z,72.91
2022-10-11T08:23:31.024Z,72.60
2022-10-11T08:29:02.881Z,69.12
2022-10-11T08:34:34.675Z,65.27
2022-10-11T08:45:36.034Z,70.09
2022-10-11T08:51:07.694Z,70.34
2022-10-11T08:56:39.569Z,71.06
2022-10-11T09:02:11.457Z,72.09
2022-10-11T09:07:43.250Z,73.15
2022-10-11T09:13:14.927Z,73.27
2022-10-11T09:24:16.229Z,75.52
2022-10-11T09:35:17.517Z,75.24
2022-10-11T09:40:49.230Z,75.81
2022-10-11T09:51:50.829Z,74.61
2022-10-11T09:57:22.684Z,75.16
2022-10-11T10:02:54.928Z,75.96
2022-10-11T10:08:27.028Z,75.73
2022-10-11T10:24:58.124Z,74.40
2022-10-11T10:30:34.516Z,74.11
2022-10-11T10:36:02.005Z,73.51
2022-10-11T10:41:33.642Z,73.06
2022-10-11T10:47:05.542Z,72.99
2022-10-11T10:52:37.348Z,71.73
2022-10-11T10:58:08.938Z,71.61
2022-10-11T11:03:40.791Z,71.18
2022-10-11T11:09:12.669Z,72.03
2022-10-11T11:16:54.544Z,72.12
2022-10-11T11:22:28.054Z,72.35
2022-10-11T11:27:56.728Z,72.53
2022-10-11T11:33:28.254Z,69.80
2022-10-11T11:39:00.166Z,68.41
2022-10-11T11:44:31.782Z,67.44
2022-10-11T11:50:03.565Z,66.60
2022-10-11T11:55:35.386Z,66.36
2022-10-11T12:06:47.705Z,66.47
2022-10-11T12:12:08.559Z,67.67
2022-10-11T12:17:40.121Z,68.39
2022-10-11T12:23:13.183Z,68.05
2022-10-11T12:28:43.703Z,68.71
2022-10-11T12:34:15.595Z,67.87
2022-10-11T12:39:47.489Z,68.74
2022-10-11T12:45:18.844Z,70.82
2022-10-11T12:50:50.293Z,71.05
2022-10-11T12:56:21.918Z,71.68
2022-10-11T13:01:53.753Z,70.88
2022-10-11T13:07:25.499Z,71.88
2022-10-11T13:12:57.300Z,71.84
2022-10-11T13:18:28.917Z,73.90
2022-10-11T13:24:00.829Z,74.07
2022-10-11T13:29:32.709Z,74.18
2022-10-11T13:35:04.509Z,74.07
2022-10-11T13:40:36.273Z,74.57
2022-10-11T13:46:08.856Z,74.11
2022-10-11T13:51:40.536Z,74.56
2022-10-11T13:57:12.418Z,74.52
2022-10-11T14:02:44.174Z,74.68
2022-10-11T14:08:16.503Z,73.86
2022-10-11T14:13:48.373Z,74.61
2022-10-11T14:19:20.197Z,74.68
2022-10-11T14:24:53.735Z,75.08
2022-10-11T14:30:27.120Z,74.24
2022-10-11T14:35:57.502Z,74.55
2022-10-11T14:41:29.294Z,75.06
2022-10-11T14:52:34.855Z,75.33
2022-10-11T15:03:38.615Z,75.58
2022-10-11T15:14:40.689Z,75.66
2022-10-11T15:25:44.234Z,74.87
2022-10-11T15:31:15.706Z,74.58
2022-10-11T15:36:53.595Z,74.39
2022-10-11T15:42:25.613Z,74.88
2022-10-11T15:47:57.839Z,75.87
2022-10-11T15:53:29.742Z,75.84
2022-10-11T16:04:33.708Z,77.14
2022-10-11T16:15:43.971Z,78.47
2022-10-11T16:21:18.415Z,78.94
2022-10-11T16:26:50.630Z,78.90
2022-10-11T16:32:23.136Z,78.82
2022-10-11T16:43:26.878Z,79.09
2022-10-11T16:48:58.656Z,79.97
2022-10-11T16:54:30.387Z,79.90
2022-10-11T17:02:15.513Z,79.76
2022-10-11T17:07:47.272Z,79.89
2022-10-11T17:18:50.865Z,81.21
2022-10-11T17:24:22.960Z,81.76
2022-10-11T17:29:54.654Z,81.59
2022-10-11T17:52:07.140Z,83.89
2022-10-11T17:54:30.684Z,84.52
2022-10-11T18:00:02.170Z,85.17
2022-10-11T18:05:34.131Z,84.97
2022-10-11T18:16:39.701Z,85.37
2022-10-11T18:22:11.893Z,85.88
2022-10-11T18:27:43.745Z,85.80
2022-10-11T18:33:15.686Z,86.41
2022-10-11T18:38:47.864Z,86.38
2022-10-11T18:44:19.564Z,86.46
2022-10-11T18:55:23.144Z,86.42
2022-10-11T19:00:55.080Z,87.04
2022-10-11T19:06:26.725Z,86.80
2022-10-11T19:11:58.743Z,87.01
2022-10-11T19:17:30.763Z,86.97
2022-10-11T19:23:02.666Z,87.56
2022-10-11T19:28:34.326Z,87.31
2022-10-11T19:34:06.144Z,87.51
2022-10-11T19:39:41.795Z,87.03
2022-10-11T19:45:13.526Z,86.85
2022-10-11T19:50:45.600Z,86.72
2022-10-11T19:56:17.896Z,86.54
2022-10-11T20:01:52.999Z,86.77
2022-10-11T20:07:22.119Z,86.99
2022-10-11T20:12:54.133Z,87.32
2022-10-11T20:18:26.001Z,87.38
2022-10-11T20:23:57.693Z,87.28
2022-10-11T20:35:00.503Z,86.40
2022-10-11T20:40:32.213Z,87.16
2022-10-11T20:46:04.010Z,87.89
2022-10-11T20:51:35.605Z,88.31
2022-10-11T20:57:07.383Z,88.13
2022-10-11T21:02:38.796Z,88.26
2022-10-11T21:08:10.392Z,88.52
2022-10-11T21:13:42.191Z,88.44
2022-10-11T21:19:13.780Z,88.41
2022-10-11T21:24:47.181Z,88.26
2022-10-11T21:30:18.981Z,88.82
2022-10-11T21:35:50.702Z,88.57
2022-10-11T21:41:22.222Z,88.96
2022-10-11T21:47:06.628Z,89.36
2022-10-11T21:52:25.956Z,89.12
2022-10-11T21:57:57.908Z,88.71
2022-10-11T22:03:29.625Z,89.68
2022-10-11T22:09:01.477Z,89.47
2022-10-11T22:14:33.226Z,89.81
2022-10-11T22:20:06.189Z,90.20
2022-10-11T22:25:37.913Z,90.14
2022-10-11T22:31:09.619Z,89.86
2022-10-11T22:36:42.702Z,90.10
2022-10-11T22:42:16.810Z,89.60
2022-10-11T22:53:17.579Z,90.22
2022-10-11T22:58:49.138Z,90.10
2022-10-11T23:04:20.737Z,90.84
2022-10-11T23:09:52.139Z,90.87
2022-10-11T23:15:25.586Z,91.48
2022-10-11T23:20:57.180Z,91.50
2022-10-11T23:32:00.042Z,91.81
2022-10-11T23:37:32.067Z,92.01
2022-10-11T23:43:03.806Z,91.96
2022-10-11T23:48:35.294Z,92.44
2022-10-11T23:54:07.122Z,92.49
2022-10-11T23:59:38.771Z,92.33
